sensor_id;sensor_type;location;lat;lon;timestamp;P1;durP1;ratioP1;P2;durP2;ratioP2
23388;SDS011;11867;51.198;11.966;2023-10-19T00:00:37;33.50;;;21.55;;
23388;SDS011;11867;51.198;11.966;2023-10-19T00:06:05;27.33;;;20.88;;
23388;SDS011;11867;51.198;11.966;2023-10-19T00:11:29;32.78;;;23.05;;
23388;SDS011;11867;51.198;11.966;2023-10-19T00:16:54;31.63;;;22.77;;
23388;SDS011;11867;51.198;11.966;2023-10-19T00:22:29;35.03;;;21.77;;
23388;SDS011;11867;51.198;11.966;2023-10-19T00:27:57;29.73;;;22.20;;
23388;SDS011;11867;51.198;11.966;2023-10-19T00:33:23;31.58;;;21.85;;
23388;SDS011;11867;51.198;11.966;2023-10-19T00:38:50;32.67;;;21.77;;
23388;SDS011;11867;51.198;11.966;2023-10-19T00:44:14;34.30;;;22.70;;
23388;SDS011;11867;51.198;11.966;2023-10-19T00:49:40;32.55;;;22.35;;
23388;SDS011;11867;51.198;11.966;2023-10-19T00:55:06;34.22;;;23.73;;
23388;SDS011;11867;51.198;11.966;2023-10-19T01:00:30;29.45;;;17.73;;
23388;SDS011;11867;51.198;11.966;2023-10-19T01:05:57;31.52;;;22.30;;
23388;SDS011;11867;51.198;11.966;2023-10-19T01:11:21;33.78;;;22.88;;
23388;SDS011;11867;51.198;11.966;2023-10-19T01:16:50;35.10;;;23.33;;
23388;SDS011;11867;51.198;11.966;2023-10-19T01:22:14;36.10;;;22.02;;
23388;SDS011;11867;51.198;11.966;2023-10-19T01:27:40;35.42;;;23.40;;
23388;SDS011;11867;51.198;11.966;2023-10-19T01:33:03;28.00;;;19.42;;
23388;SDS011;11867;51.198;11.966;2023-10-19T01:38:34;34.38;;;23.67;;
23388;SDS011;11867;51.198;11.966;2023-10-19T01:43:59;40.83;;;25.23;;
23388;SDS011;11867;51.198;11.966;2023-10-19T01:49:28;37.45;;;26.02;;
23388;SDS011;11867;51.198;11.966;2023-10-19T01:54:51;38.95;;;26.10;;
23388;SDS011;11867;51.198;11.966;2023-10-19T02:00:22;40.92;;;27.08;;
23388;SDS011;11867;51.198;11.966;2023-10-19T02:05:45;42.90;;;28.00;;
23388;SDS011;11867;51.198;11.966;2023-10-19T02:11:11;40.67;;;28.58;;
23388;SDS011;11867;51.198;11.966;2023-10-19T02:16:39;38.67;;;27.40;;
23388;SDS011;11867;51.198;11.966;2023-10-19T02:22:03;30.48;;;20.48;;
23388;SDS011;11867;51.198;11.966;2023-10-19T02:27:30;41.45;;;28.05;;
23388;SDS011;11867;51.198;11.966;2023-10-19T02:32:55;38.97;;;28.73;;
23388;SDS011;11867;51.198;11.966;2023-10-19T02:38:18;27.88;;;20.42;;
23388;SDS011;11867;51.198;11.966;2023-10-19T02:43:43;36.55;;;27.88;;
23388;SDS011;11867;51.198;11.966;2023-10-19T02:49:14;38.45;;;27.80;;
23388;SDS011;11867;51.198;11.966;2023-10-19T02:54:40;41.03;;;29.10;;
23388;SDS011;11867;51.198;11.966;2023-10-19T03:00:05;39.90;;;28.27;;
23388;SDS011;11867;51.198;11.966;2023-10-19T03:05:36;40.53;;;28.38;;
23388;SDS011;11867;51.198;11.966;2023-10-19T03:11:01;37.58;;;29.00;;
23388;SDS011;11867;51.198;11.966;2023-10-19T03:16:26;37.70;;;26.95;;
23388;SDS011;11867;51.198;11.966;2023-10-19T03:21:53;40.95;;;28.42;;
23388;SDS011;11867;51.198;11.966;2023-10-19T03:27:18;36.28;;;25.85;;
23388;SDS011;11867;51.198;11.966;2023-10-19T03:32:43;33.35;;;26.10;;
23388;SDS011;11867;51.198;11.966;2023-10-19T03:38:08;34.25;;;26.05;;
23388;SDS011;11867;51.198;11.966;2023-10-19T03:43:36;34.85;;;26.95;;
23388;SDS011;11867;51.198;11.966;2023-10-19T03:49:02;31.83;;;25.80;;
23388;SDS011;11867;51.198;11.966;2023-10-19T03:54:33;35.35;;;24.75;;
23388;SDS011;11867;51.198;11.966;2023-10-19T04:00:00;37.33;;;25.95;;
23388;SDS011;11867;51.198;11.966;2023-10-19T04:05:25;27.60;;;20.67;;
23388;SDS011;11867;51.198;11.966;2023-10-19T04:10:51;32.55;;;25.75;;
23388;SDS011;11867;51.198;11.966;2023-10-19T04:16:28;33.53;;;26.25;;
23388;SDS011;11867;51.198;11.966;2023-10-19T04:21:52;33.42;;;23.52;;
23388;SDS011;11867;51.198;11.966;2023-10-19T04:27:16;29.52;;;23.40;;
23388;SDS011;11867;51.198;11.966;2023-10-19T04:32:39;31.60;;;24.40;;
23388;SDS011;11867;51.198;11.966;2023-10-19T04:38:03;31.30;;;24.13;;
23388;SDS011;11867;51.198;11.966;2023-10-19T04:43:30;31.63;;;24.58;;
23388;SDS011;11867;51.198;11.966;2023-10-19T04:48:53;24.65;;;18.58;;
23388;SDS011;11867;51.198;11.966;2023-10-19T04:54:16;33.78;;;23.52;;
23388;SDS011;11867;51.198;11.966;2023-10-19T04:59:40;34.45;;;22.98;;
23388;SDS011;11867;51.198;11.966;2023-10-19T05:05:07;28.13;;;22.25;;
23388;SDS011;11867;51.198;11.966;2023-10-19T05:10:31;26.35;;;20.73;;
23388;SDS011;11867;51.198;11.966;2023-10-19T05:15:56;26.17;;;18.73;;
23388;SDS011;11867;51.198;11.966;2023-10-19T05:21:20;29.17;;;22.90;;
23388;SDS011;11867;51.198;11.966;2023-10-19T05:26:43;29.88;;;23.17;;
23388;SDS011;11867;51.198;11.966;2023-10-19T05:32:09;25.75;;;21.98;;
23388;SDS011;11867;51.198;11.966;2023-10-19T05:42:56;22.92;;;17.73;;
23388;SDS011;11867;51.198;11.966;2023-10-19T05:48:23;33.05;;;22.08;;
23388;SDS011;11867;51.198;11.966;2023-10-19T05:59:10;27.42;;;21.33;;
23388;SDS011;11867;51.198;11.966;2023-10-19T06:04:34;22.92;;;19.23;;
23388;SDS011;11867;51.198;11.966;2023-10-19T06:10:00;25.08;;;19.60;;
23388;SDS011;11867;51.198;11.966;2023-10-19T06:15:26;27.70;;;21.05;;
23388;SDS011;11867;51.198;11.966;2023-10-19T06:20:52;21.73;;;15.35;;
23388;SDS011;11867;51.198;11.966;2023-10-19T06:26:16;27.40;;;20.90;;
23388;SDS011;11867;51.198;11.966;2023-10-19T06:31:39;27.15;;;20.17;;
23388;SDS011;11867;51.198;11.966;2023-10-19T06:37:04;26.17;;;20.48;;
23388;SDS011;11867;51.198;11.966;2023-10-19T06:42:28;28.48;;;19.90;;
23388;SDS011;11867;51.198;11.966;2023-10-19T06:47:52;29.20;;;20.30;;
23388;SDS011;11867;51.198;11.966;2023-10-19T06:53:16;25.00;;;19.58;;
23388;SDS011;11867;51.198;11.966;2023-10-19T06:58:40;25.88;;;19.30;;
23388;SDS011;11867;51.198;11.966;2023-10-19T07:04:03;23.88;;;19.67;;
23388;SDS011;11867;51.198;11.966;2023-10-19T07:09:28;22.80;;;18.80;;
23388;SDS011;11867;51.198;11.966;2023-10-19T07:14:51;20.08;;;17.05;;
23388;SDS011;11867;51.198;11.966;2023-10-19T07:20:16;22.80;;;18.90;;
23388;SDS011;11867;51.198;11.966;2023-10-19T07:25:49;22.95;;;18.88;;
23388;SDS011;11867;51.198;11.966;2023-10-19T07:31:16;22.58;;;17.90;;
23388;SDS011;11867;51.198;11.966;2023-10-19T07:36:39;23.17;;;18.85;;
23388;SDS011;11867;51.198;11.966;2023-10-19T07:42:05;23.25;;;19.48;;
23388;SDS011;11867;51.198;11.966;2023-10-19T07:47:28;15.60;;;13.93;;
23388;SDS011;11867;51.198;11.966;2023-10-19T07:52:54;20.08;;;16.65;;
23388;SDS011;11867;51.198;11.966;2023-10-19T07:58:18;21.75;;;18.88;;
23388;SDS011;11867;51.198;11.966;2023-10-19T08:03:41;23.25;;;19.13;;
23388;SDS011;11867;51.198;11.966;2023-10-19T08:09:05;20.60;;;17.75;;
23388;SDS011;11867;51.198;11.966;2023-10-19T08:14:32;21.92;;;17.77;;
23388;SDS011;11867;51.198;11.966;2023-10-19T08:19:56;16.10;;;14.18;;
23388;SDS011;11867;51.198;11.966;2023-10-19T08:25:19;25.63;;;20.25;;
23388;SDS011;11867;51.198;11.966;2023-10-19T08:30:44;19.77;;;16.00;;
23388;SDS011;11867;51.198;11.966;2023-10-19T08:36:18;22.98;;;18.48;;
23388;SDS011;11867;51.198;11.966;2023-10-19T08:41:42;29.10;;;20.17;;
23388;SDS011;11867;51.198;11.966;2023-10-19T08:47:06;25.85;;;20.40;;
23388;SDS011;11867;51.198;11.966;2023-10-19T08:52:30;22.35;;;19.40;;
23388;SDS011;11867;51.198;11.966;2023-10-19T08:57:57;22.23;;;18.85;;
23388;SDS011;11867;51.198;11.966;2023-10-19T09:03:22;21.55;;;18.27;;
23388;SDS011;11867;51.198;11.966;2023-10-19T09:08:47;23.02;;;19.80;;
23388;SDS011;11867;51.198;11.966;2023-10-19T09:14:11;22.08;;;16.95;;
23388;SDS011;11867;51.198;11.966;2023-10-19T09:19:36;21.40;;;17.30;;
23388;SDS011;11867;51.198;11.966;2023-10-19T09:25:00;22.33;;;18.10;;
23388;SDS011;11867;51.198;11.966;2023-10-19T09:30:28;23.15;;;18.92;;
23388;SDS011;11867;51.198;11.966;2023-10-19T09:35:54;19.42;;;17.38;;
23388;SDS011;11867;51.198;11.966;2023-10-19T09:41:20;22.42;;;17.92;;
23388;SDS011;11867;51.198;11.966;2023-10-19T09:46:44;19.87;;;17.13;;
23388;SDS011;11867;51.198;11.966;2023-10-19T09:52:11;22.77;;;16.73;;
23388;SDS011;11867;51.198;11.966;2023-10-19T09:57:36;19.77;;;16.92;;
23388;SDS011;11867;51.198;11.966;2023-10-19T10:03:08;18.90;;;16.58;;
23388;SDS011;11867;51.198;11.966;2023-10-19T10:09:11;21.90;;;17.67;;
23388;SDS011;11867;51.198;11.966;2023-10-19T10:14:34;18.75;;;16.73;;
23388;SDS011;11867;51.198;11.966;2023-10-19T10:25:52;19.83;;;17.52;;
23388;SDS011;11867;51.198;11.966;2023-10-19T10:31:19;18.50;;;16.50;;
23388;SDS011;11867;51.198;11.966;2023-10-19T10:36:59;16.85;;;14.57;;
23388;SDS011;11867;51.198;11.966;2023-10-19T10:42:26;17.38;;;15.32;;
23388;SDS011;11867;51.198;11.966;2023-10-19T10:47:49;17.60;;;15.52;;
23388;SDS011;11867;51.198;11.966;2023-10-19T10:53:13;16.63;;;14.93;;
23388;SDS011;11867;51.198;11.966;2023-10-19T10:58:38;16.88;;;14.02;;
23388;SDS011;11867;51.198;11.966;2023-10-19T11:04:05;15.38;;;13.77;;
23388;SDS011;11867;51.198;11.966;2023-10-19T11:09:30;14.57;;;13.10;;
23388;SDS011;11867;51.198;11.966;2023-10-19T11:15:08;16.38;;;14.57;;
23388;SDS011;11867;51.198;11.966;2023-10-19T11:20:32;15.55;;;13.93;;
23388;SDS011;11867;51.198;11.966;2023-10-19T11:25:57;16.02;;;14.18;;
23388;SDS011;11867;51.198;11.966;2023-10-19T11:31:22;17.15;;;15.35;;
23388;SDS011;11867;51.198;11.966;2023-10-19T11:36:46;15.18;;;13.25;;
23388;SDS011;11867;51.198;11.966;2023-10-19T11:42:09;18.45;;;14.27;;
23388;SDS011;11867;51.198;11.966;2023-10-19T11:47:35;17.40;;;15.02;;
23388;SDS011;11867;51.198;11.966;2023-10-19T11:52:58;17.10;;;14.77;;
23388;SDS011;11867;51.198;11.966;2023-10-19T11:58:21;16.25;;;14.55;;
23388;SDS011;11867;51.198;11.966;2023-10-19T12:03:46;16.92;;;15.13;;
23388;SDS011;11867;51.198;11.966;2023-10-19T12:09:10;17.55;;;15.75;;
23388;SDS011;11867;51.198;11.966;2023-10-19T12:14:37;19.23;;;17.02;;
23388;SDS011;11867;51.198;11.966;2023-10-19T12:20:02;15.65;;;14.05;;
23388;SDS011;11867;51.198;11.966;2023-10-19T12:25:28;20.48;;;16.85;;
23388;SDS011;11867;51.198;11.966;2023-10-19T12:31:03;22.25;;;16.27;;
23388;SDS011;11867;51.198;11.966;2023-10-19T12:36:29;17.23;;;15.20;;
23388;SDS011;11867;51.198;11.966;2023-10-19T12:41:54;15.80;;;12.73;;
23388;SDS011;11867;51.198;11.966;2023-10-19T12:52:44;12.93;;;11.63;;
23388;SDS011;11867;51.198;11.966;2023-10-19T12:58:07;14.63;;;13.18;;
23388;SDS011;11867;51.198;11.966;2023-10-19T13:09:00;14.23;;;12.68;;
23388;SDS011;11867;51.198;11.966;2023-10-19T13:14:23;12.75;;;11.45;;
23388;SDS011;11867;51.198;11.966;2023-10-19T13:19:46;10.17;;;9.13;;
23388;SDS011;11867;51.198;11.966;2023-10-19T13:25:14;13.43;;;12.00;;
23388;SDS011;11867;51.198;11.966;2023-10-19T13:30:39;13.60;;;11.23;;
23388;SDS011;11867;51.198;11.966;2023-10-19T13:36:02;10.32;;;8.27;;
23388;SDS011;11867;51.198;11.966;2023-10-19T13:41:29;13.38;;;11.98;;
23388;SDS011;11867;51.198;11.966;2023-10-19T13:46:52;13.23;;;11.82;;
23388;SDS011;11867;51.198;11.966;2023-10-19T13:52:16;12.65;;;11.45;;
23388;SDS011;11867;51.198;11.966;2023-10-19T13:57:42;13.75;;;11.85;;
23388;SDS011;11867;51.198;11.966;2023-10-19T14:08:29;13.75;;;12.25;;
23388;SDS011;11867;51.198;11.966;2023-10-19T14:13:53;14.10;;;11.97;;
23388;SDS011;11867;51.198;11.966;2023-10-19T14:24:40;13.20;;;11.85;;
23388;SDS011;11867;51.198;11.966;2023-10-19T14:30:05;13.30;;;11.90;;
23388;SDS011;11867;51.198;11.966;2023-10-19T14:35:29;16.77;;;13.18;;
23388;SDS011;11867;51.198;11.966;2023-10-19T14:40:52;15.88;;;12.30;;
23388;SDS011;11867;51.198;11.966;2023-10-19T14:46:17;16.55;;;14.40;;
23388;SDS011;11867;51.198;11.966;2023-10-19T14:57:04;20.35;;;15.73;;
23388;SDS011;11867;51.198;11.966;2023-10-19T15:02:28;20.10;;;16.52;;
23388;SDS011;11867;51.198;11.966;2023-10-19T15:07:51;22.75;;;17.38;;
23388;SDS011;11867;51.198;11.966;2023-10-19T15:13:16;18.73;;;16.73;;
23388;SDS011;11867;51.198;11.966;2023-10-19T15:18:40;20.20;;;16.05;;
23388;SDS011;11867;51.198;11.966;2023-10-19T15:24:04;20.17;;;18.02;;
23388;SDS011;11867;51.198;11.966;2023-10-19T15:29:27;20.63;;;16.50;;
23388;SDS011;11867;51.198;11.966;2023-10-19T15:34:52;19.45;;;17.00;;
23388;SDS011;11867;51.198;11.966;2023-10-19T15:45:38;20.10;;;16.27;;
23388;SDS011;11867;51.198;11.966;2023-10-19T15:51:06;25.90;;;21.83;;
23388;SDS011;11867;51.198;11.966;2023-10-19T15:56:29;27.05;;;20.60;;
23388;SDS011;11867;51.198;11.966;2023-10-19T16:01:52;26.20;;;23.05;;
23388;SDS011;11867;51.198;11.966;2023-10-19T16:07:17;26.15;;;22.95;;
23388;SDS011;11867;51.198;11.966;2023-10-19T16:12:40;29.05;;;22.33;;
23388;SDS011;11867;51.198;11.966;2023-10-19T16:18:04;23.80;;;21.02;;
23388;SDS011;11867;51.198;11.966;2023-10-19T16:23:31;24.73;;;19.02;;
23388;SDS011;11867;51.198;11.966;2023-10-19T16:28:55;23.55;;;20.48;;
23388;SDS011;11867;51.198;11.966;2023-10-19T16:34:18;21.10;;;18.80;;
23388;SDS011;11867;51.198;11.966;2023-10-19T16:39:42;25.52;;;21.77;;
23388;SDS011;11867;51.198;11.966;2023-10-19T16:45:06;24.83;;;22.13;;
23388;SDS011;11867;51.198;11.966;2023-10-19T16:50:35;23.05;;;20.63;;
23388;SDS011;11867;51.198;11.966;2023-10-19T16:56:00;24.23;;;21.27;;
23388;SDS011;11867;51.198;11.966;2023-10-19T17:01:24;26.23;;;23.20;;
23388;SDS011;11867;51.198;11.966;2023-10-19T17:06:48;27.02;;;21.80;;
23388;SDS011;11867;51.198;11.966;2023-10-19T17:12:13;30.77;;;23.33;;
23388;SDS011;11867;51.198;11.966;2023-10-19T17:17:39;26.90;;;22.33;;
23388;SDS011;11867;51.198;11.966;2023-10-19T17:23:05;29.25;;;22.23;;
23388;SDS011;11867;51.198;11.966;2023-10-19T17:28:30;28.50;;;23.35;;
23388;SDS011;11867;51.198;11.966;2023-10-19T17:33:56;25.02;;;21.83;;
23388;SDS011;11867;51.198;11.966;2023-10-19T17:39:19;26.27;;;20.63;;
23388;SDS011;11867;51.198;11.966;2023-10-19T17:44:46;33.85;;;21.98;;
23388;SDS011;11867;51.198;11.966;2023-10-19T17:50:17;30.92;;;23.77;;
23388;SDS011;11867;51.198;11.966;2023-10-19T17:55:50;33.85;;;24.67;;
23388;SDS011;11867;51.198;11.966;2023-10-19T18:01:15;27.70;;;22.88;;
23388;SDS011;11867;51.198;11.966;2023-10-19T18:06:39;27.60;;;23.58;;
23388;SDS011;11867;51.198;11.966;2023-10-19T18:12:02;25.60;;;21.50;;
23388;SDS011;11867;51.198;11.966;2023-10-19T18:17:27;25.95;;;22.15;;
23388;SDS011;11867;51.198;11.966;2023-10-19T18:22:50;29.25;;;24.73;;
23388;SDS011;11867;51.198;11.966;2023-10-19T18:28:13;27.65;;;21.00;;
23388;SDS011;11867;51.198;11.966;2023-10-19T18:33:38;31.30;;;25.30;;
23388;SDS011;11867;51.198;11.966;2023-10-19T18:39:03;31.77;;;24.88;;
23388;SDS011;11867;51.198;11.966;2023-10-19T18:44:26;28.05;;;23.65;;
23388;SDS011;11867;51.198;11.966;2023-10-19T18:49:53;30.93;;;23.67;;
23388;SDS011;11867;51.198;11.966;2023-10-19T18:55:17;27.02;;;22.42;;
23388;SDS011;11867;51.198;11.966;2023-10-19T19:00:50;31.67;;;24.00;;
23388;SDS011;11867;51.198;11.966;2023-10-19T19:06:15;28.45;;;24.30;;
23388;SDS011;11867;51.198;11.966;2023-10-19T19:17:04;32.40;;;25.88;;
23388;SDS011;11867;51.198;11.966;2023-10-19T19:22:29;32.53;;;26.02;;
23388;SDS011;11867;51.198;11.966;2023-10-19T19:27:55;31.80;;;26.77;;
23388;SDS011;11867;51.198;11.966;2023-10-19T19:33:19;35.05;;;27.17;;
23388;SDS011;11867;51.198;11.966;2023-10-19T19:38:44;33.40;;;26.13;;
23388;SDS011;11867;51.198;11.966;2023-10-19T19:44:07;34.70;;;24.13;;
23388;SDS011;11867;51.198;11.966;2023-10-19T19:49:32;35.53;;;24.98;;
23388;SDS011;11867;51.198;11.966;2023-10-19T19:54:56;32.10;;;25.60;;
23388;SDS011;11867;51.198;11.966;2023-10-19T20:00:19;34.13;;;26.92;;
23388;SDS011;11867;51.198;11.966;2023-10-19T20:05:44;24.48;;;19.77;;
23388;SDS011;11867;51.198;11.966;2023-10-19T20:20:38;32.70;;;26.73;;
23388;SDS011;11867;51.198;11.966;2023-10-19T20:26:02;32.13;;;26.60;;
23388;SDS011;11867;51.198;11.966;2023-10-19T20:31:25;29.85;;;25.65;;
23388;SDS011;11867;51.198;11.966;2023-10-19T20:36:51;38.22;;;28.08;;
23388;SDS011;11867;51.198;11.966;2023-10-19T20:42:14;35.58;;;28.27;;
23388;SDS011;11867;51.198;11.966;2023-10-19T20:47:37;41.35;;;29.13;;
23388;SDS011;11867;51.198;11.966;2023-10-19T20:53:05;36.13;;;27.30;;
23388;SDS011;11867;51.198;11.966;2023-10-19T20:58:28;27.33;;;19.92;;
23388;SDS011;11867;51.198;11.966;2023-10-19T21:03:51;33.30;;;26.05;;
23388;SDS011;11867;51.198;11.966;2023-10-19T21:09:16;30.83;;;26.40;;
23388;SDS011;11867;51.198;11.966;2023-10-19T21:14:39;31.35;;;25.52;;
23388;SDS011;11867;51.198;11.966;2023-10-19T21:20:02;30.40;;;25.63;;
23388;SDS011;11867;51.198;11.966;2023-10-19T21:25:29;37.40;;;27.50;;
23388;SDS011;11867;51.198;11.966;2023-10-19T21:36:17;38.28;;;26.90;;
23388;SDS011;11867;51.198;11.966;2023-10-19T21:41:41;32.90;;;26.05;;
23388;SDS011;11867;51.198;11.966;2023-10-19T21:47:05;31.85;;;25.63;;
23388;SDS011;11867;51.198;11.966;2023-10-19T21:52:28;36.08;;;27.00;;
23388;SDS011;11867;51.198;11.966;2023-10-19T21:57:53;34.45;;;27.63;;
23388;SDS011;11867;51.198;11.966;2023-10-19T22:03:16;31.58;;;26.63;;
23388;SDS011;11867;51.198;11.966;2023-10-19T22:08:39;32.90;;;26.08;;
23388;SDS011;11867;51.198;11.966;2023-10-19T22:14:04;35.05;;;26.75;;
23388;SDS011;11867;51.198;11.966;2023-10-19T22:19:27;25.30;;;19.55;;
23388;SDS011;11867;51.198;11.966;2023-10-19T22:24:51;33.17;;;26.60;;
23388;SDS011;11867;51.198;11.966;2023-10-19T22:30:15;33.00;;;24.60;;
23388;SDS011;11867;51.198;11.966;2023-10-19T22:35:38;23.48;;;19.33;;
23388;SDS011;11867;51.198;11.966;2023-10-19T22:41:02;36.40;;;25.27;;
23388;SDS011;11867;51.198;11.966;2023-10-19T22:46:29;35.47;;;26.45;;
23388;SDS011;11867;51.198;11.966;2023-10-19T22:51:53;32.70;;;25.80;;
23388;SDS011;11867;51.198;11.966;2023-10-19T22:57:16;33.95;;;24.33;;
23388;SDS011;11867;51.198;11.966;2023-10-19T23:02:40;33.42;;;25.33;;
23388;SDS011;11867;51.198;11.966;2023-10-19T23:08:04;28.42;;;23.00;;
23388;SDS011;11867;51.198;11.966;2023-10-19T23:13:28;30.38;;;25.13;;
23388;SDS011;11867;51.198;11.966;2023-10-19T23:18:57;32.90;;;25.73;;
23388;SDS011;11867;51.198;11.966;2023-10-19T23:24:21;29.13;;;24.00;;
23388;SDS011;11867;51.198;11.966;2023-10-19T23:29:51;29.30;;;24.08;;
23388;SDS011;11867;51.198;11.966;2023-10-19T23:35:15;25.52;;;22.27;;
23388;SDS011;11867;51.198;11.966;2023-10-19T23:40:39;28.23;;;22.80;;
23388;SDS011;11867;51.198;11.966;2023-10-19T23:46:03;31.65;;;23.77;;
23388;SDS011;11867;51.198;11.966;2023-10-19T23:51:28;27.67;;;22.80;;
23388;SDS011;11867;51.198;11.966;2023-10-19T23:56:51;20.42;;;17.42;;
